Aeroporto :
LOGIN :

Iscrizione | Disclaimer

   EN    FR    IT 

 










Sommario :    VFR   VFR Marginale   IFR   IFR Intensivo   IFR Molto Intensivo
Visibilità : 
Base nubi : 
>= 8 km
>= 3000ft
5 / 8 km
1000 / 3000 ft
1500m / 5 km
500 / 1000 ft
800 / 1500m
200 / 500 ft
< 800m
< 200 ft
Simboli :   Temporali  Nebbia  Neve Forte  Precipitazioni Forti  Vento > 20 kt
SIGMETs :   Varie  Temporali  Ghiacco  Turbolenza  Onda orograficha  Ceneri Vulcaniche






- Altitudine del aeroporto : 140 ft


ESTL - Ljungbyhed

ULTIMO METAR :
  • 231820Z AUTO 27013KT 9999 FEW038/// SCT045/// 08/05 Q1020

METARs OBSOLETI :
  • 231750Z AUTO 27014KT 9999 FEW027/// 07/04 Q1019
  • 231720Z AUTO 28015KT 9999 FEW022/// SCT026/// BKN032/// 08/05 Q1019
  • 231650Z AUTO 28014KT 9999 FEW027/// BKN037/// 08/05 Q1019
  • 231620Z AUTO 27016KT 9999 FEW023/// SCT026/// 08/05 Q1018
  • 231550Z AUTO 27018KT 9999 FEW023/// BKN027/// BKN034/// 08/05 Q1018

Previsioni scadute.



MetMap, La meteo Aeronautica in un colpo d'occhio ! - Copyright ORBIFLY Dicembre 2007 - Disclaimer

ORBIFLY MET'MAP TEAM :

Programmazione e sviluppo : Alexandra Zaïnal
Concezione : Baudouin d'Aumeries
Aiuto per la programmazione : Marc-Olivier Méhu
Supporto tecnico e logistico : Manuel Goepfert
Aiuto per la traduzione : Arnaldo La Scala

Contatto : metmap@orbifly.com




FONTI E CREDITI :

   NOAA